<?xml version="1.0" encoding="UTF-8" standalone="no" ?>
<gpx xmlns="http://www.topografix.com/GPX/1/1" xmlns:xsi="http://www.w3.org/2001/XMLSchema-instance" xsi:schemaLocation="http://www.topografix.com/GPX/1/1 http://www.topografix.com/GPX/1/1/gpx.xsd" version="1.1" creator="VisuGPX - https://www.visugpx.com">
  <metadata>
    <name>Grabels</name>
  </metadata>
  <trk>
    <name><![CDATA[12501344-Grabels]]></name>
    <trkseg>
      <trkpt lat="43.65052" lon="3.7894">
        <ele>65</ele>
        <time>2021-02-03T11:51:38Z</time>
      </trkpt>
      <trkpt lat="43.65058" lon="3.7893">
        <ele>64</ele>
        <time>2021-02-03T11:51:40Z</time>
      </trkpt>
      <trkpt lat="43.6506" lon="3.7892">
        <ele>65</ele>
        <time>2021-02-03T11:51:42Z</time>
      </trkpt>
      <trkpt lat="43.65059" lon="3.78915">
        <ele>65</ele>
        <time>2021-02-03T11:51:43Z</time>
      </trkpt>
      <trkpt lat="43.65065" lon="3.7889">
        <ele>66</ele>
        <time>2021-02-03T11:51:47Z</time>
      </trkpt>
      <trkpt lat="43.65071" lon="3.78886">
        <ele>66</ele>
        <time>2021-02-03T11:51:49Z</time>
      </trkpt>
      <trkpt lat="43.6508" lon="3.78866">
        <ele>67</ele>
        <time>2021-02-03T11:51:53Z</time>
      </trkpt>
      <trkpt lat="43.65091" lon="3.78852">
        <ele>67</ele>
        <time>2021-02-03T11:51:56Z</time>
      </trkpt>
      <trkpt lat="43.65146" lon="3.78811">
        <ele>66</ele>
        <time>2021-02-03T11:52:11Z</time>
      </trkpt>
      <trkpt lat="43.65145" lon="3.78807">
        <ele>67</ele>
        <time>2021-02-03T11:52:12Z</time>
      </trkpt>
      <trkpt lat="43.65134" lon="3.78756">
        <ele>72</ele>
        <time>2021-02-03T11:52:21Z</time>
      </trkpt>
      <trkpt lat="43.65139" lon="3.78726">
        <ele>73</ele>
        <time>2021-02-03T11:52:26Z</time>
      </trkpt>
      <trkpt lat="43.6513" lon="3.78699">
        <ele>75</ele>
        <time>2021-02-03T11:52:31Z</time>
      </trkpt>
      <trkpt lat="43.65133" lon="3.78666">
        <ele>76</ele>
        <time>2021-02-03T11:52:36Z</time>
      </trkpt>
      <trkpt lat="43.65132" lon="3.78631">
        <ele>77</ele>
        <time>2021-02-03T11:52:42Z</time>
      </trkpt>
      <trkpt lat="43.65137" lon="3.78576">
        <ele>76</ele>
        <time>2021-02-03T11:52:52Z</time>
      </trkpt>
      <trkpt lat="43.65136" lon="3.78559">
        <ele>76</ele>
        <time>2021-02-03T11:52:55Z</time>
      </trkpt>
      <trkpt lat="43.65128" lon="3.78534">
        <ele>77</ele>
        <time>2021-02-03T11:52:59Z</time>
      </trkpt>
      <trkpt lat="43.65124" lon="3.78516">
        <ele>78</ele>
        <time>2021-02-03T11:53:02Z</time>
      </trkpt>
      <trkpt lat="43.65124" lon="3.78513">
        <ele>78</ele>
        <time>2021-02-03T11:53:03Z</time>
      </trkpt>
      <trkpt lat="43.65122" lon="3.78484">
        <ele>78</ele>
        <time>2021-02-03T11:53:08Z</time>
      </trkpt>
      <trkpt lat="43.65124" lon="3.78455">
        <ele>78</ele>
        <time>2021-02-03T11:53:13Z</time>
      </trkpt>
      <trkpt lat="43.65146" lon="3.78368">
        <ele>79</ele>
        <time>2021-02-03T11:53:28Z</time>
      </trkpt>
      <trkpt lat="43.65156" lon="3.7832">
        <ele>79</ele>
        <time>2021-02-03T11:53:37Z</time>
      </trkpt>
      <trkpt lat="43.65159" lon="3.78292">
        <ele>79</ele>
        <time>2021-02-03T11:53:42Z</time>
      </trkpt>
      <trkpt lat="43.65158" lon="3.78234">
        <ele>81</ele>
        <time>2021-02-03T11:53:51Z</time>
      </trkpt>
      <trkpt lat="43.65164" lon="3.78233">
        <ele>81</ele>
        <time>2021-02-03T11:53:53Z</time>
      </trkpt>
      <trkpt lat="43.65167" lon="3.78234">
        <ele>81</ele>
        <time>2021-02-03T11:53:53Z</time>
      </trkpt>
      <trkpt lat="43.65168" lon="3.78198">
        <ele>82</ele>
        <time>2021-02-03T11:54:00Z</time>
      </trkpt>
      <trkpt lat="43.65173" lon="3.78178">
        <ele>82</ele>
        <time>2021-02-03T11:54:03Z</time>
      </trkpt>
      <trkpt lat="43.65182" lon="3.78161">
        <ele>82</ele>
        <time>2021-02-03T11:54:07Z</time>
      </trkpt>
      <trkpt lat="43.65192" lon="3.7813">
        <ele>83</ele>
        <time>2021-02-03T11:54:12Z</time>
      </trkpt>
      <trkpt lat="43.65219" lon="3.7808">
        <ele>82</ele>
        <time>2021-02-03T11:54:23Z</time>
      </trkpt>
      <trkpt lat="43.65235" lon="3.78034">
        <ele>81</ele>
        <time>2021-02-03T11:54:32Z</time>
      </trkpt>
      <trkpt lat="43.65244" lon="3.78015">
        <ele>81</ele>
        <time>2021-02-03T11:54:35Z</time>
      </trkpt>
      <trkpt lat="43.65269" lon="3.77985">
        <ele>81</ele>
        <time>2021-02-03T11:54:43Z</time>
      </trkpt>
      <trkpt lat="43.65291" lon="3.77921">
        <ele>84</ele>
        <time>2021-02-03T11:54:55Z</time>
      </trkpt>
      <trkpt lat="43.65291" lon="3.77921">
        <ele>84</ele>
        <time>2021-02-03T11:54:55Z</time>
      </trkpt>
      <trkpt lat="43.65306" lon="3.77894">
        <ele>84</ele>
        <time>2021-02-03T11:55:01Z</time>
      </trkpt>
      <trkpt lat="43.65377" lon="3.77706">
        <ele>87</ele>
        <time>2021-02-03T11:55:37Z</time>
      </trkpt>
      <trkpt lat="43.65434" lon="3.77609">
        <ele>85</ele>
        <time>2021-02-03T11:55:58Z</time>
      </trkpt>
      <trkpt lat="43.65496" lon="3.77531">
        <ele>82</ele>
        <time>2021-02-03T11:56:17Z</time>
      </trkpt>
      <trkpt lat="43.6551" lon="3.77504">
        <ele>82</ele>
        <time>2021-02-03T11:56:23Z</time>
      </trkpt>
      <trkpt lat="43.65528" lon="3.77449">
        <ele>85</ele>
        <time>2021-02-03T11:56:33Z</time>
      </trkpt>
      <trkpt lat="43.65544" lon="3.77415">
        <ele>86</ele>
        <time>2021-02-03T11:56:40Z</time>
      </trkpt>
      <trkpt lat="43.6557" lon="3.77375">
        <ele>85</ele>
        <time>2021-02-03T11:56:49Z</time>
      </trkpt>
      <trkpt lat="43.6558" lon="3.77345">
        <ele>85</ele>
        <time>2021-02-03T11:56:55Z</time>
      </trkpt>
      <trkpt lat="43.65583" lon="3.77318">
        <ele>85</ele>
        <time>2021-02-03T11:56:59Z</time>
      </trkpt>
      <trkpt lat="43.65578" lon="3.77293">
        <ele>86</ele>
        <time>2021-02-03T11:57:04Z</time>
      </trkpt>
      <trkpt lat="43.65583" lon="3.77256">
        <ele>87</ele>
        <time>2021-02-03T11:57:10Z</time>
      </trkpt>
      <trkpt lat="43.65577" lon="3.77228">
        <ele>88</ele>
        <time>2021-02-03T11:57:15Z</time>
      </trkpt>
      <trkpt lat="43.6558" lon="3.77139">
        <ele>90</ele>
        <time>2021-02-03T11:57:30Z</time>
      </trkpt>
      <trkpt lat="43.65598" lon="3.76929">
        <ele>96</ele>
        <time>2021-02-03T11:58:06Z</time>
      </trkpt>
      <trkpt lat="43.65607" lon="3.76925">
        <ele>96</ele>
        <time>2021-02-03T11:58:08Z</time>
      </trkpt>
      <trkpt lat="43.65604" lon="3.76906">
        <ele>96</ele>
        <time>2021-02-03T11:58:11Z</time>
      </trkpt>
      <trkpt lat="43.65616" lon="3.76886">
        <ele>96</ele>
        <time>2021-02-03T11:58:16Z</time>
      </trkpt>
      <trkpt lat="43.65616" lon="3.76886">
        <ele>96</ele>
        <time>2021-02-03T11:58:16Z</time>
      </trkpt>
      <trkpt lat="43.65705" lon="3.76733">
        <ele>89</ele>
        <time>2021-02-03T11:58:49Z</time>
      </trkpt>
      <trkpt lat="43.6572" lon="3.76701">
        <ele>88</ele>
        <time>2021-02-03T11:58:55Z</time>
      </trkpt>
      <trkpt lat="43.65709" lon="3.76688">
        <ele>88</ele>
        <time>2021-02-03T11:58:59Z</time>
      </trkpt>
      <trkpt lat="43.65697" lon="3.76656">
        <ele>89</ele>
        <time>2021-02-03T11:59:05Z</time>
      </trkpt>
      <trkpt lat="43.6569" lon="3.76626">
        <ele>90</ele>
        <time>2021-02-03T11:59:10Z</time>
      </trkpt>
      <trkpt lat="43.6569" lon="3.76572">
        <ele>93</ele>
        <time>2021-02-03T11:59:19Z</time>
      </trkpt>
      <trkpt lat="43.65699" lon="3.76495">
        <ele>96</ele>
        <time>2021-02-03T11:59:32Z</time>
      </trkpt>
      <trkpt lat="43.657" lon="3.76465">
        <ele>96</ele>
        <time>2021-02-03T11:59:38Z</time>
      </trkpt>
      <trkpt lat="43.65696" lon="3.76431">
        <ele>96</ele>
        <time>2021-02-03T11:59:43Z</time>
      </trkpt>
      <trkpt lat="43.65684" lon="3.76398">
        <ele>96</ele>
        <time>2021-02-03T11:59:50Z</time>
      </trkpt>
      <trkpt lat="43.65678" lon="3.76376">
        <ele>97</ele>
        <time>2021-02-03T11:59:54Z</time>
      </trkpt>
      <trkpt lat="43.65678" lon="3.76359">
        <ele>97</ele>
        <time>2021-02-03T11:59:56Z</time>
      </trkpt>
      <trkpt lat="43.65723" lon="3.76223">
        <ele>99</ele>
        <time>2021-02-03T12:00:22Z</time>
      </trkpt>
      <trkpt lat="43.65731" lon="3.75988">
        <ele>106</ele>
        <time>2021-02-03T12:01:01Z</time>
      </trkpt>
      <trkpt lat="43.65717" lon="3.75906">
        <ele>110</ele>
        <time>2021-02-03T12:01:16Z</time>
      </trkpt>
      <trkpt lat="43.65706" lon="3.75867">
        <ele>112</ele>
        <time>2021-02-03T12:01:23Z</time>
      </trkpt>
      <trkpt lat="43.65705" lon="3.75848">
        <ele>113</ele>
        <time>2021-02-03T12:01:26Z</time>
      </trkpt>
      <trkpt lat="43.65705" lon="3.75749">
        <ele>121</ele>
        <time>2021-02-03T12:01:43Z</time>
      </trkpt>
      <trkpt lat="43.65703" lon="3.75727">
        <ele>121</ele>
        <time>2021-02-03T12:01:46Z</time>
      </trkpt>
      <trkpt lat="43.65695" lon="3.75692">
        <ele>123</ele>
        <time>2021-02-03T12:01:53Z</time>
      </trkpt>
      <trkpt lat="43.65696" lon="3.75652">
        <ele>124</ele>
        <time>2021-02-03T12:01:59Z</time>
      </trkpt>
      <trkpt lat="43.65711" lon="3.75362">
        <ele>131</ele>
        <time>2021-02-03T12:02:49Z</time>
      </trkpt>
      <trkpt lat="43.65683" lon="3.7533">
        <ele>130</ele>
        <time>2021-02-03T12:02:57Z</time>
      </trkpt>
      <trkpt lat="43.6567" lon="3.75322">
        <ele>130</ele>
        <time>2021-02-03T12:03:00Z</time>
      </trkpt>
      <trkpt lat="43.65635" lon="3.75305">
        <ele>133</ele>
        <time>2021-02-03T12:03:09Z</time>
      </trkpt>
      <trkpt lat="43.65629" lon="3.75295">
        <ele>133</ele>
        <time>2021-02-03T12:03:11Z</time>
      </trkpt>
      <trkpt lat="43.65627" lon="3.75266">
        <ele>132</ele>
        <time>2021-02-03T12:03:16Z</time>
      </trkpt>
      <trkpt lat="43.65676" lon="3.75084">
        <ele>124</ele>
        <time>2021-02-03T12:03:49Z</time>
      </trkpt>
      <trkpt lat="43.65695" lon="3.75034">
        <ele>121</ele>
        <time>2021-02-03T12:03:58Z</time>
      </trkpt>
      <trkpt lat="43.65725" lon="3.75016">
        <ele>114</ele>
        <time>2021-02-03T12:04:06Z</time>
      </trkpt>
      <trkpt lat="43.65746" lon="3.7501">
        <ele>110</ele>
        <time>2021-02-03T12:04:11Z</time>
      </trkpt>
      <trkpt lat="43.65737" lon="3.75004">
        <ele>112</ele>
        <time>2021-02-03T12:04:13Z</time>
      </trkpt>
      <trkpt lat="43.65717" lon="3.74999">
        <ele>116</ele>
        <time>2021-02-03T12:04:18Z</time>
      </trkpt>
      <trkpt lat="43.65687" lon="3.74966">
        <ele>123</ele>
        <time>2021-02-03T12:04:27Z</time>
      </trkpt>
      <trkpt lat="43.6568" lon="3.74932">
        <ele>124</ele>
        <time>2021-02-03T12:04:33Z</time>
      </trkpt>
      <trkpt lat="43.65673" lon="3.74879">
        <ele>128</ele>
        <time>2021-02-03T12:04:42Z</time>
      </trkpt>
      <trkpt lat="43.65674" lon="3.74842">
        <ele>131</ele>
        <time>2021-02-03T12:04:48Z</time>
      </trkpt>
      <trkpt lat="43.65681" lon="3.74795">
        <ele>134</ele>
        <time>2021-02-03T12:04:57Z</time>
      </trkpt>
      <trkpt lat="43.65682" lon="3.7476">
        <ele>136</ele>
        <time>2021-02-03T12:05:03Z</time>
      </trkpt>
      <trkpt lat="43.65675" lon="3.74723">
        <ele>137</ele>
        <time>2021-02-03T12:05:09Z</time>
      </trkpt>
      <trkpt lat="43.65661" lon="3.74683">
        <ele>138</ele>
        <time>2021-02-03T12:05:16Z</time>
      </trkpt>
      <trkpt lat="43.65659" lon="3.74647">
        <ele>141</ele>
        <time>2021-02-03T12:05:23Z</time>
      </trkpt>
      <trkpt lat="43.65668" lon="3.74565">
        <ele>146</ele>
        <time>2021-02-03T12:05:37Z</time>
      </trkpt>
      <trkpt lat="43.65659" lon="3.74518">
        <ele>149</ele>
        <time>2021-02-03T12:05:45Z</time>
      </trkpt>
      <trkpt lat="43.65598" lon="3.74434">
        <ele>151</ele>
        <time>2021-02-03T12:06:05Z</time>
      </trkpt>
      <trkpt lat="43.6557" lon="3.74384">
        <ele>151</ele>
        <time>2021-02-03T12:06:16Z</time>
      </trkpt>
      <trkpt lat="43.6555" lon="3.74346">
        <ele>154</ele>
        <time>2021-02-03T12:06:24Z</time>
      </trkpt>
      <trkpt lat="43.65544" lon="3.74297">
        <ele>156</ele>
        <time>2021-02-03T12:06:32Z</time>
      </trkpt>
      <trkpt lat="43.65532" lon="3.74228">
        <ele>157</ele>
        <time>2021-02-03T12:06:44Z</time>
      </trkpt>
      <trkpt lat="43.65509" lon="3.74169">
        <ele>156</ele>
        <time>2021-02-03T12:06:55Z</time>
      </trkpt>
      <trkpt lat="43.65458" lon="3.7409">
        <ele>156</ele>
        <time>2021-02-03T12:07:13Z</time>
      </trkpt>
      <trkpt lat="43.6541" lon="3.74048">
        <ele>157</ele>
        <time>2021-02-03T12:07:26Z</time>
      </trkpt>
      <trkpt lat="43.65382" lon="3.74039">
        <ele>159</ele>
        <time>2021-02-03T12:07:33Z</time>
      </trkpt>
      <trkpt lat="43.65324" lon="3.73999">
        <ele>161</ele>
        <time>2021-02-03T12:07:48Z</time>
      </trkpt>
      <trkpt lat="43.65106" lon="3.73876">
        <ele>162</ele>
        <time>2021-02-03T12:08:43Z</time>
      </trkpt>
      <trkpt lat="43.64858" lon="3.73708">
        <ele>168</ele>
        <time>2021-02-03T12:09:48Z</time>
      </trkpt>
      <trkpt lat="43.64803" lon="3.73653">
        <ele>167</ele>
        <time>2021-02-03T12:10:04Z</time>
      </trkpt>
      <trkpt lat="43.64784" lon="3.7361">
        <ele>167</ele>
        <time>2021-02-03T12:10:12Z</time>
      </trkpt>
      <trkpt lat="43.64784" lon="3.73593">
        <ele>167</ele>
        <time>2021-02-03T12:10:15Z</time>
      </trkpt>
      <trkpt lat="43.64813" lon="3.7349">
        <ele>169</ele>
        <time>2021-02-03T12:10:34Z</time>
      </trkpt>
      <trkpt lat="43.64804" lon="3.73448">
        <ele>171</ele>
        <time>2021-02-03T12:10:41Z</time>
      </trkpt>
      <trkpt lat="43.6482" lon="3.73366">
        <ele>173</ele>
        <time>2021-02-03T12:10:55Z</time>
      </trkpt>
      <trkpt lat="43.64791" lon="3.73208">
        <ele>181</ele>
        <time>2021-02-03T12:11:23Z</time>
      </trkpt>
      <trkpt lat="43.64768" lon="3.73148">
        <ele>181</ele>
        <time>2021-02-03T12:11:34Z</time>
      </trkpt>
      <trkpt lat="43.64721" lon="3.73119">
        <ele>181</ele>
        <time>2021-02-03T12:11:46Z</time>
      </trkpt>
      <trkpt lat="43.64777" lon="3.73032">
        <ele>180</ele>
        <time>2021-02-03T12:12:06Z</time>
      </trkpt>
      <trkpt lat="43.64816" lon="3.72976">
        <ele>181</ele>
        <time>2021-02-03T12:12:19Z</time>
      </trkpt>
      <trkpt lat="43.64832" lon="3.72957">
        <ele>182</ele>
        <time>2021-02-03T12:12:24Z</time>
      </trkpt>
      <trkpt lat="43.64833" lon="3.7291">
        <ele>182</ele>
        <time>2021-02-03T12:12:32Z</time>
      </trkpt>
      <trkpt lat="43.64824" lon="3.72876">
        <ele>183</ele>
        <time>2021-02-03T12:12:38Z</time>
      </trkpt>
      <trkpt lat="43.64695" lon="3.7269">
        <ele>182</ele>
        <time>2021-02-03T12:13:22Z</time>
      </trkpt>
      <trkpt lat="43.64678" lon="3.72631">
        <ele>183</ele>
        <time>2021-02-03T12:13:33Z</time>
      </trkpt>
      <trkpt lat="43.64678" lon="3.72613">
        <ele>184</ele>
        <time>2021-02-03T12:13:36Z</time>
      </trkpt>
      <trkpt lat="43.64664" lon="3.72561">
        <ele>183</ele>
        <time>2021-02-03T12:13:45Z</time>
      </trkpt>
      <trkpt lat="43.64712" lon="3.72566">
        <ele>184</ele>
        <time>2021-02-03T12:13:56Z</time>
      </trkpt>
      <trkpt lat="43.64787" lon="3.72496">
        <ele>181</ele>
        <time>2021-02-03T12:14:17Z</time>
      </trkpt>
      <trkpt lat="43.64874" lon="3.72343">
        <ele>163</ele>
        <time>2021-02-03T12:14:50Z</time>
      </trkpt>
      <trkpt lat="43.64876" lon="3.72325">
        <ele>161</ele>
        <time>2021-02-03T12:14:53Z</time>
      </trkpt>
      <trkpt lat="43.64949" lon="3.72224">
        <ele>152</ele>
        <time>2021-02-03T12:15:17Z</time>
      </trkpt>
      <trkpt lat="43.65007" lon="3.72135">
        <ele>138</ele>
        <time>2021-02-03T12:15:38Z</time>
      </trkpt>
      <trkpt lat="43.65034" lon="3.72103">
        <ele>132</ele>
        <time>2021-02-03T12:15:46Z</time>
      </trkpt>
      <trkpt lat="43.65053" lon="3.72056">
        <ele>125</ele>
        <time>2021-02-03T12:15:55Z</time>
      </trkpt>
      <trkpt lat="43.65048" lon="3.7202">
        <ele>121</ele>
        <time>2021-02-03T12:16:01Z</time>
      </trkpt>
      <trkpt lat="43.65061" lon="3.71945">
        <ele>114</ele>
        <time>2021-02-03T12:16:14Z</time>
      </trkpt>
      <trkpt lat="43.65038" lon="3.71952">
        <ele>115</ele>
        <time>2021-02-03T12:16:20Z</time>
      </trkpt>
      <trkpt lat="43.65006" lon="3.71939">
        <ele>116</ele>
        <time>2021-02-03T12:16:28Z</time>
      </trkpt>
      <trkpt lat="43.64914" lon="3.71922">
        <ele>119</ele>
        <time>2021-02-03T12:16:49Z</time>
      </trkpt>
      <trkpt lat="43.64909" lon="3.71913">
        <ele>118</ele>
        <time>2021-02-03T12:16:51Z</time>
      </trkpt>
      <trkpt lat="43.64913" lon="3.71872">
        <ele>117</ele>
        <time>2021-02-03T12:16:58Z</time>
      </trkpt>
      <trkpt lat="43.6489" lon="3.71829">
        <ele>116</ele>
        <time>2021-02-03T12:17:07Z</time>
      </trkpt>
      <trkpt lat="43.64883" lon="3.71799">
        <ele>116</ele>
        <time>2021-02-03T12:17:13Z</time>
      </trkpt>
      <trkpt lat="43.6487" lon="3.71778">
        <ele>116</ele>
        <time>2021-02-03T12:17:17Z</time>
      </trkpt>
      <trkpt lat="43.64876" lon="3.71751">
        <ele>116</ele>
        <time>2021-02-03T12:17:22Z</time>
      </trkpt>
      <trkpt lat="43.64895" lon="3.71731">
        <ele>116</ele>
        <time>2021-02-03T12:17:28Z</time>
      </trkpt>
      <trkpt lat="43.64897" lon="3.71697">
        <ele>116</ele>
        <time>2021-02-03T12:17:33Z</time>
      </trkpt>
      <trkpt lat="43.64902" lon="3.71675">
        <ele>117</ele>
        <time>2021-02-03T12:17:37Z</time>
      </trkpt>
      <trkpt lat="43.64918" lon="3.71647">
        <ele>117</ele>
        <time>2021-02-03T12:17:43Z</time>
      </trkpt>
      <trkpt lat="43.64953" lon="3.71545">
        <ele>120</ele>
        <time>2021-02-03T12:18:02Z</time>
      </trkpt>
      <trkpt lat="43.64956" lon="3.71517">
        <ele>120</ele>
        <time>2021-02-03T12:18:07Z</time>
      </trkpt>
      <trkpt lat="43.64946" lon="3.71513">
        <ele>120</ele>
        <time>2021-02-03T12:18:10Z</time>
      </trkpt>
      <trkpt lat="43.64918" lon="3.71463">
        <ele>120</ele>
        <time>2021-02-03T12:18:20Z</time>
      </trkpt>
      <trkpt lat="43.64869" lon="3.7139">
        <ele>119</ele>
        <time>2021-02-03T12:18:37Z</time>
      </trkpt>
      <trkpt lat="43.64841" lon="3.71339">
        <ele>116</ele>
        <time>2021-02-03T12:18:48Z</time>
      </trkpt>
      <trkpt lat="43.64726" lon="3.71188">
        <ele>116</ele>
        <time>2021-02-03T12:19:25Z</time>
      </trkpt>
      <trkpt lat="43.64722" lon="3.71154">
        <ele>114</ele>
        <time>2021-02-03T12:19:31Z</time>
      </trkpt>
      <trkpt lat="43.647" lon="3.71108">
        <ele>112</ele>
        <time>2021-02-03T12:19:40Z</time>
      </trkpt>
      <trkpt lat="43.64596" lon="3.71022">
        <ele>116</ele>
        <time>2021-02-03T12:20:08Z</time>
      </trkpt>
      <trkpt lat="43.64498" lon="3.70861">
        <ele>118</ele>
        <time>2021-02-03T12:20:44Z</time>
      </trkpt>
      <trkpt lat="43.64484" lon="3.70891">
        <ele>119</ele>
        <time>2021-02-03T12:20:50Z</time>
      </trkpt>
      <trkpt lat="43.64471" lon="3.70912">
        <ele>121</ele>
        <time>2021-02-03T12:20:55Z</time>
      </trkpt>
      <trkpt lat="43.64456" lon="3.70931">
        <ele>123</ele>
        <time>2021-02-03T12:20:59Z</time>
      </trkpt>
      <trkpt lat="43.64437" lon="3.70909">
        <ele>124</ele>
        <time>2021-02-03T12:21:05Z</time>
      </trkpt>
      <trkpt lat="43.64414" lon="3.709">
        <ele>126</ele>
        <time>2021-02-03T12:21:11Z</time>
      </trkpt>
      <trkpt lat="43.64394" lon="3.70899">
        <ele>127</ele>
        <time>2021-02-03T12:21:15Z</time>
      </trkpt>
      <trkpt lat="43.64372" lon="3.70917">
        <ele>129</ele>
        <time>2021-02-03T12:21:21Z</time>
      </trkpt>
      <trkpt lat="43.64349" lon="3.7093">
        <ele>130</ele>
        <time>2021-02-03T12:21:27Z</time>
      </trkpt>
      <trkpt lat="43.6433" lon="3.70948">
        <ele>132</ele>
        <time>2021-02-03T12:21:33Z</time>
      </trkpt>
      <trkpt lat="43.64265" lon="3.70976">
        <ele>133</ele>
        <time>2021-02-03T12:21:48Z</time>
      </trkpt>
      <trkpt lat="43.64216" lon="3.71002">
        <ele>132</ele>
        <time>2021-02-03T12:22:01Z</time>
      </trkpt>
      <trkpt lat="43.64182" lon="3.71048">
        <ele>132</ele>
        <time>2021-02-03T12:22:12Z</time>
      </trkpt>
      <trkpt lat="43.64176" lon="3.7106">
        <ele>132</ele>
        <time>2021-02-03T12:22:14Z</time>
      </trkpt>
      <trkpt lat="43.64166" lon="3.71087">
        <ele>132</ele>
        <time>2021-02-03T12:22:19Z</time>
      </trkpt>
      <trkpt lat="43.64162" lon="3.71091">
        <ele>132</ele>
        <time>2021-02-03T12:22:21Z</time>
      </trkpt>
      <trkpt lat="43.64155" lon="3.71104">
        <ele>132</ele>
        <time>2021-02-03T12:22:23Z</time>
      </trkpt>
      <trkpt lat="43.64144" lon="3.71119">
        <ele>132</ele>
        <time>2021-02-03T12:22:27Z</time>
      </trkpt>
      <trkpt lat="43.64117" lon="3.71177">
        <ele>133</ele>
        <time>2021-02-03T12:22:39Z</time>
      </trkpt>
      <trkpt lat="43.64107" lon="3.71194">
        <ele>134</ele>
        <time>2021-02-03T12:22:42Z</time>
      </trkpt>
      <trkpt lat="43.64087" lon="3.71209">
        <ele>135</ele>
        <time>2021-02-03T12:22:48Z</time>
      </trkpt>
      <trkpt lat="43.64071" lon="3.71217">
        <ele>135</ele>
        <time>2021-02-03T12:22:52Z</time>
      </trkpt>
      <trkpt lat="43.6405" lon="3.7124">
        <ele>137</ele>
        <time>2021-02-03T12:22:58Z</time>
      </trkpt>
      <trkpt lat="43.64046" lon="3.71246">
        <ele>137</ele>
        <time>2021-02-03T12:22:59Z</time>
      </trkpt>
      <trkpt lat="43.64043" lon="3.71222">
        <ele>136</ele>
        <time>2021-02-03T12:23:03Z</time>
      </trkpt>
      <trkpt lat="43.64052" lon="3.71277">
        <ele>138</ele>
        <time>2021-02-03T12:23:13Z</time>
      </trkpt>
      <trkpt lat="43.64058" lon="3.71282">
        <ele>139</ele>
        <time>2021-02-03T12:23:14Z</time>
      </trkpt>
      <trkpt lat="43.64061" lon="3.71288">
        <ele>139</ele>
        <time>2021-02-03T12:23:16Z</time>
      </trkpt>
      <trkpt lat="43.64064" lon="3.71303">
        <ele>140</ele>
        <time>2021-02-03T12:23:18Z</time>
      </trkpt>
      <trkpt lat="43.64074" lon="3.71331">
        <ele>142</ele>
        <time>2021-02-03T12:23:24Z</time>
      </trkpt>
      <trkpt lat="43.64076" lon="3.7134">
        <ele>142</ele>
        <time>2021-02-03T12:23:25Z</time>
      </trkpt>
      <trkpt lat="43.64075" lon="3.71355">
        <ele>143</ele>
        <time>2021-02-03T12:23:28Z</time>
      </trkpt>
      <trkpt lat="43.64063" lon="3.71378">
        <ele>144</ele>
        <time>2021-02-03T12:23:33Z</time>
      </trkpt>
      <trkpt lat="43.64061" lon="3.71404">
        <ele>145</ele>
        <time>2021-02-03T12:23:37Z</time>
      </trkpt>
      <trkpt lat="43.64061" lon="3.71429">
        <ele>147</ele>
        <time>2021-02-03T12:23:41Z</time>
      </trkpt>
      <trkpt lat="43.64065" lon="3.71479">
        <ele>150</ele>
        <time>2021-02-03T12:23:50Z</time>
      </trkpt>
      <trkpt lat="43.64063" lon="3.71519">
        <ele>151</ele>
        <time>2021-02-03T12:23:56Z</time>
      </trkpt>
      <trkpt lat="43.64064" lon="3.7154">
        <ele>152</ele>
        <time>2021-02-03T12:24:00Z</time>
      </trkpt>
      <trkpt lat="43.64069" lon="3.71559">
        <ele>152</ele>
        <time>2021-02-03T12:24:03Z</time>
      </trkpt>
      <trkpt lat="43.64074" lon="3.71569">
        <ele>152</ele>
        <time>2021-02-03T12:24:05Z</time>
      </trkpt>
      <trkpt lat="43.64098" lon="3.71598">
        <ele>151</ele>
        <time>2021-02-03T12:24:13Z</time>
      </trkpt>
      <trkpt lat="43.64108" lon="3.71606">
        <ele>150</ele>
        <time>2021-02-03T12:24:16Z</time>
      </trkpt>
      <trkpt lat="43.64129" lon="3.71615">
        <ele>148</ele>
        <time>2021-02-03T12:24:21Z</time>
      </trkpt>
      <trkpt lat="43.64178" lon="3.71661">
        <ele>145</ele>
        <time>2021-02-03T12:24:35Z</time>
      </trkpt>
      <trkpt lat="43.64188" lon="3.71673">
        <ele>143</ele>
        <time>2021-02-03T12:24:38Z</time>
      </trkpt>
      <trkpt lat="43.64197" lon="3.71709">
        <ele>140</ele>
        <time>2021-02-03T12:24:44Z</time>
      </trkpt>
      <trkpt lat="43.64209" lon="3.71742">
        <ele>138</ele>
        <time>2021-02-03T12:24:50Z</time>
      </trkpt>
      <trkpt lat="43.64214" lon="3.71753">
        <ele>137</ele>
        <time>2021-02-03T12:24:53Z</time>
      </trkpt>
      <trkpt lat="43.64219" lon="3.71757">
        <ele>137</ele>
        <time>2021-02-03T12:24:54Z</time>
      </trkpt>
      <trkpt lat="43.64224" lon="3.71759">
        <ele>137</ele>
        <time>2021-02-03T12:24:55Z</time>
      </trkpt>
      <trkpt lat="43.6424" lon="3.71749">
        <ele>136</ele>
        <time>2021-02-03T12:24:59Z</time>
      </trkpt>
      <trkpt lat="43.64245" lon="3.7175">
        <ele>136</ele>
        <time>2021-02-03T12:25:00Z</time>
      </trkpt>
      <trkpt lat="43.6425" lon="3.71758">
        <ele>136</ele>
        <time>2021-02-03T12:25:02Z</time>
      </trkpt>
      <trkpt lat="43.64244" lon="3.71806">
        <ele>135</ele>
        <time>2021-02-03T12:25:10Z</time>
      </trkpt>
      <trkpt lat="43.64234" lon="3.71845">
        <ele>134</ele>
        <time>2021-02-03T12:25:17Z</time>
      </trkpt>
      <trkpt lat="43.64215" lon="3.71901">
        <ele>132</ele>
        <time>2021-02-03T12:25:28Z</time>
      </trkpt>
      <trkpt lat="43.64226" lon="3.71909">
        <ele>132</ele>
        <time>2021-02-03T12:25:31Z</time>
      </trkpt>
      <trkpt lat="43.64209" lon="3.72027">
        <ele>131</ele>
        <time>2021-02-03T12:25:51Z</time>
      </trkpt>
      <trkpt lat="43.64144" lon="3.72196">
        <ele>130</ele>
        <time>2021-02-03T12:26:23Z</time>
      </trkpt>
      <trkpt lat="43.64111" lon="3.72275">
        <ele>131</ele>
        <time>2021-02-03T12:26:39Z</time>
      </trkpt>
      <trkpt lat="43.64071" lon="3.72345">
        <ele>132</ele>
        <time>2021-02-03T12:26:54Z</time>
      </trkpt>
      <trkpt lat="43.64049" lon="3.72377">
        <ele>133</ele>
        <time>2021-02-03T12:27:01Z</time>
      </trkpt>
      <trkpt lat="43.64038" lon="3.72388">
        <ele>133</ele>
        <time>2021-02-03T12:27:05Z</time>
      </trkpt>
      <trkpt lat="43.63972" lon="3.72513">
        <ele>134</ele>
        <time>2021-02-03T12:27:31Z</time>
      </trkpt>
      <trkpt lat="43.63962" lon="3.72539">
        <ele>134</ele>
        <time>2021-02-03T12:27:36Z</time>
      </trkpt>
      <trkpt lat="43.63936" lon="3.72622">
        <ele>134</ele>
        <time>2021-02-03T12:27:51Z</time>
      </trkpt>
      <trkpt lat="43.63914" lon="3.72699">
        <ele>133</ele>
        <time>2021-02-03T12:28:05Z</time>
      </trkpt>
      <trkpt lat="43.63888" lon="3.72814">
        <ele>135</ele>
        <time>2021-02-03T12:28:25Z</time>
      </trkpt>
      <trkpt lat="43.63869" lon="3.72924">
        <ele>136</ele>
        <time>2021-02-03T12:28:44Z</time>
      </trkpt>
      <trkpt lat="43.63859" lon="3.72994">
        <ele>137</ele>
        <time>2021-02-03T12:28:56Z</time>
      </trkpt>
      <trkpt lat="43.63845" lon="3.73119">
        <ele>137</ele>
        <time>2021-02-03T12:29:18Z</time>
      </trkpt>
      <trkpt lat="43.63842" lon="3.73159">
        <ele>137</ele>
        <time>2021-02-03T12:29:25Z</time>
      </trkpt>
      <trkpt lat="43.63841" lon="3.7322">
        <ele>140</ele>
        <time>2021-02-03T12:29:35Z</time>
      </trkpt>
      <trkpt lat="43.63846" lon="3.73294">
        <ele>141</ele>
        <time>2021-02-03T12:29:48Z</time>
      </trkpt>
      <trkpt lat="43.63844" lon="3.73374">
        <ele>141</ele>
        <time>2021-02-03T12:30:01Z</time>
      </trkpt>
      <trkpt lat="43.63839" lon="3.73441">
        <ele>142</ele>
        <time>2021-02-03T12:30:12Z</time>
      </trkpt>
      <trkpt lat="43.63839" lon="3.73555">
        <ele>143</ele>
        <time>2021-02-03T12:30:32Z</time>
      </trkpt>
      <trkpt lat="43.63835" lon="3.73603">
        <ele>143</ele>
        <time>2021-02-03T12:30:40Z</time>
      </trkpt>
      <trkpt lat="43.63834" lon="3.73691">
        <ele>144</ele>
        <time>2021-02-03T12:30:55Z</time>
      </trkpt>
      <trkpt lat="43.63837" lon="3.73729">
        <ele>145</ele>
        <time>2021-02-03T12:31:01Z</time>
      </trkpt>
      <trkpt lat="43.63866" lon="3.73781">
        <ele>146</ele>
        <time>2021-02-03T12:31:12Z</time>
      </trkpt>
      <trkpt lat="43.63867" lon="3.73793">
        <ele>147</ele>
        <time>2021-02-03T12:31:14Z</time>
      </trkpt>
      <trkpt lat="43.63865" lon="3.73849">
        <ele>148</ele>
        <time>2021-02-03T12:31:24Z</time>
      </trkpt>
      <trkpt lat="43.63862" lon="3.7386">
        <ele>148</ele>
        <time>2021-02-03T12:31:26Z</time>
      </trkpt>
      <trkpt lat="43.63871" lon="3.73999">
        <ele>149</ele>
        <time>2021-02-03T12:31:49Z</time>
      </trkpt>
      <trkpt lat="43.63869" lon="3.74021">
        <ele>149</ele>
        <time>2021-02-03T12:31:53Z</time>
      </trkpt>
      <trkpt lat="43.63879" lon="3.74147">
        <ele>151</ele>
        <time>2021-02-03T12:32:15Z</time>
      </trkpt>
      <trkpt lat="43.63884" lon="3.74177">
        <ele>152</ele>
        <time>2021-02-03T12:32:20Z</time>
      </trkpt>
      <trkpt lat="43.63884" lon="3.74189">
        <ele>152</ele>
        <time>2021-02-03T12:32:22Z</time>
      </trkpt>
      <trkpt lat="43.63887" lon="3.74214">
        <ele>153</ele>
        <time>2021-02-03T12:32:26Z</time>
      </trkpt>
      <trkpt lat="43.63889" lon="3.7429">
        <ele>155</ele>
        <time>2021-02-03T12:32:39Z</time>
      </trkpt>
      <trkpt lat="43.63898" lon="3.74359">
        <ele>156</ele>
        <time>2021-02-03T12:32:51Z</time>
      </trkpt>
      <trkpt lat="43.63906" lon="3.7438">
        <ele>155</ele>
        <time>2021-02-03T12:32:55Z</time>
      </trkpt>
      <trkpt lat="43.63907" lon="3.74396">
        <ele>155</ele>
        <time>2021-02-03T12:32:58Z</time>
      </trkpt>
      <trkpt lat="43.63903" lon="3.74446">
        <ele>155</ele>
        <time>2021-02-03T12:33:06Z</time>
      </trkpt>
      <trkpt lat="43.63907" lon="3.74504">
        <ele>154</ele>
        <time>2021-02-03T12:33:16Z</time>
      </trkpt>
      <trkpt lat="43.63911" lon="3.74526">
        <ele>154</ele>
        <time>2021-02-03T12:33:20Z</time>
      </trkpt>
      <trkpt lat="43.63928" lon="3.74597">
        <ele>155</ele>
        <time>2021-02-03T12:33:32Z</time>
      </trkpt>
      <trkpt lat="43.63942" lon="3.74679">
        <ele>154</ele>
        <time>2021-02-03T12:33:47Z</time>
      </trkpt>
      <trkpt lat="43.63943" lon="3.74714">
        <ele>155</ele>
        <time>2021-02-03T12:33:53Z</time>
      </trkpt>
      <trkpt lat="43.63947" lon="3.74734">
        <ele>155</ele>
        <time>2021-02-03T12:33:56Z</time>
      </trkpt>
      <trkpt lat="43.63951" lon="3.74742">
        <ele>155</ele>
        <time>2021-02-03T12:33:58Z</time>
      </trkpt>
      <trkpt lat="43.63962" lon="3.74829">
        <ele>155</ele>
        <time>2021-02-03T12:34:13Z</time>
      </trkpt>
      <trkpt lat="43.63958" lon="3.74863">
        <ele>155</ele>
        <time>2021-02-03T12:34:18Z</time>
      </trkpt>
      <trkpt lat="43.63959" lon="3.74914">
        <ele>155</ele>
        <time>2021-02-03T12:34:27Z</time>
      </trkpt>
      <trkpt lat="43.63965" lon="3.74941">
        <ele>155</ele>
        <time>2021-02-03T12:34:32Z</time>
      </trkpt>
      <trkpt lat="43.63968" lon="3.74948">
        <ele>155</ele>
        <time>2021-02-03T12:34:33Z</time>
      </trkpt>
      <trkpt lat="43.63963" lon="3.74987">
        <ele>155</ele>
        <time>2021-02-03T12:34:40Z</time>
      </trkpt>
      <trkpt lat="43.63973" lon="3.75024">
        <ele>155</ele>
        <time>2021-02-03T12:34:47Z</time>
      </trkpt>
      <trkpt lat="43.63977" lon="3.75049">
        <ele>156</ele>
        <time>2021-02-03T12:34:51Z</time>
      </trkpt>
      <trkpt lat="43.63941" lon="3.75078">
        <ele>158</ele>
        <time>2021-02-03T12:35:01Z</time>
      </trkpt>
      <trkpt lat="43.63887" lon="3.7515">
        <ele>156</ele>
        <time>2021-02-03T12:35:18Z</time>
      </trkpt>
      <trkpt lat="43.63878" lon="3.75196">
        <ele>155</ele>
        <time>2021-02-03T12:35:26Z</time>
      </trkpt>
      <trkpt lat="43.63892" lon="3.75275">
        <ele>156</ele>
        <time>2021-02-03T12:35:40Z</time>
      </trkpt>
      <trkpt lat="43.639" lon="3.7535">
        <ele>157</ele>
        <time>2021-02-03T12:35:53Z</time>
      </trkpt>
      <trkpt lat="43.63898" lon="3.75412">
        <ele>157</ele>
        <time>2021-02-03T12:36:03Z</time>
      </trkpt>
      <trkpt lat="43.63906" lon="3.75536">
        <ele>156</ele>
        <time>2021-02-03T12:36:24Z</time>
      </trkpt>
      <trkpt lat="43.63948" lon="3.75727">
        <ele>144</ele>
        <time>2021-02-03T12:36:58Z</time>
      </trkpt>
      <trkpt lat="43.6395" lon="3.75745">
        <ele>143</ele>
        <time>2021-02-03T12:37:01Z</time>
      </trkpt>
      <trkpt lat="43.63892" lon="3.75758">
        <ele>144</ele>
        <time>2021-02-03T12:37:15Z</time>
      </trkpt>
      <trkpt lat="43.63875" lon="3.75764">
        <ele>144</ele>
        <time>2021-02-03T12:37:19Z</time>
      </trkpt>
      <trkpt lat="43.63861" lon="3.75774">
        <ele>144</ele>
        <time>2021-02-03T12:37:23Z</time>
      </trkpt>
      <trkpt lat="43.63864" lon="3.75811">
        <ele>142</ele>
        <time>2021-02-03T12:37:29Z</time>
      </trkpt>
      <trkpt lat="43.63871" lon="3.7586">
        <ele>139</ele>
        <time>2021-02-03T12:37:37Z</time>
      </trkpt>
      <trkpt lat="43.63891" lon="3.75951">
        <ele>133</ele>
        <time>2021-02-03T12:37:53Z</time>
      </trkpt>
      <trkpt lat="43.63902" lon="3.76062">
        <ele>130</ele>
        <time>2021-02-03T12:38:12Z</time>
      </trkpt>
      <trkpt lat="43.63913" lon="3.76116">
        <ele>129</ele>
        <time>2021-02-03T12:38:22Z</time>
      </trkpt>
      <trkpt lat="43.6393" lon="3.76183">
        <ele>128</ele>
        <time>2021-02-03T12:38:34Z</time>
      </trkpt>
      <trkpt lat="43.63925" lon="3.76278">
        <ele>126</ele>
        <time>2021-02-03T12:38:50Z</time>
      </trkpt>
      <trkpt lat="43.63916" lon="3.76339">
        <ele>125</ele>
        <time>2021-02-03T12:39:00Z</time>
      </trkpt>
      <trkpt lat="43.63897" lon="3.76412">
        <ele>124</ele>
        <time>2021-02-03T12:39:14Z</time>
      </trkpt>
      <trkpt lat="43.63898" lon="3.76425">
        <ele>124</ele>
        <time>2021-02-03T12:39:16Z</time>
      </trkpt>
      <trkpt lat="43.63914" lon="3.7644">
        <ele>126</ele>
        <time>2021-02-03T12:39:20Z</time>
      </trkpt>
      <trkpt lat="43.63949" lon="3.76488">
        <ele>129</ele>
        <time>2021-02-03T12:39:32Z</time>
      </trkpt>
      <trkpt lat="43.63969" lon="3.76522">
        <ele>131</ele>
        <time>2021-02-03T12:39:39Z</time>
      </trkpt>
      <trkpt lat="43.63983" lon="3.76541">
        <ele>132</ele>
        <time>2021-02-03T12:39:44Z</time>
      </trkpt>
      <trkpt lat="43.64032" lon="3.76592">
        <ele>137</ele>
        <time>2021-02-03T12:39:58Z</time>
      </trkpt>
      <trkpt lat="43.6407" lon="3.76603">
        <ele>140</ele>
        <time>2021-02-03T12:40:07Z</time>
      </trkpt>
      <trkpt lat="43.64079" lon="3.76627">
        <ele>141</ele>
        <time>2021-02-03T12:40:12Z</time>
      </trkpt>
      <trkpt lat="43.64107" lon="3.76654">
        <ele>143</ele>
        <time>2021-02-03T12:40:20Z</time>
      </trkpt>
      <trkpt lat="43.64116" lon="3.76674">
        <ele>144</ele>
        <time>2021-02-03T12:40:24Z</time>
      </trkpt>
      <trkpt lat="43.64132" lon="3.76744">
        <ele>146</ele>
        <time>2021-02-03T12:40:36Z</time>
      </trkpt>
      <trkpt lat="43.64165" lon="3.77056">
        <ele>132</ele>
        <time>2021-02-03T12:41:29Z</time>
      </trkpt>
      <trkpt lat="43.64175" lon="3.77201">
        <ele>129</ele>
        <time>2021-02-03T12:41:54Z</time>
      </trkpt>
      <trkpt lat="43.64187" lon="3.7762">
        <ele>117</ele>
        <time>2021-02-03T12:43:05Z</time>
      </trkpt>
      <trkpt lat="43.64193" lon="3.77688">
        <ele>119</ele>
        <time>2021-02-03T12:43:16Z</time>
      </trkpt>
      <trkpt lat="43.64192" lon="3.77698">
        <ele>120</ele>
        <time>2021-02-03T12:43:18Z</time>
      </trkpt>
      <trkpt lat="43.64185" lon="3.77709">
        <ele>120</ele>
        <time>2021-02-03T12:43:21Z</time>
      </trkpt>
      <trkpt lat="43.64185" lon="3.77713">
        <ele>120</ele>
        <time>2021-02-03T12:43:21Z</time>
      </trkpt>
      <trkpt lat="43.64187" lon="3.77719">
        <ele>121</ele>
        <time>2021-02-03T12:43:22Z</time>
      </trkpt>
      <trkpt lat="43.64194" lon="3.77728">
        <ele>122</ele>
        <time>2021-02-03T12:43:25Z</time>
      </trkpt>
      <trkpt lat="43.64195" lon="3.77757">
        <ele>123</ele>
        <time>2021-02-03T12:43:30Z</time>
      </trkpt>
      <trkpt lat="43.64187" lon="3.77815">
        <ele>125</ele>
        <time>2021-02-03T12:43:40Z</time>
      </trkpt>
      <trkpt lat="43.64197" lon="3.77848">
        <ele>126</ele>
        <time>2021-02-03T12:43:46Z</time>
      </trkpt>
      <trkpt lat="43.64198" lon="3.78037">
        <ele>124</ele>
        <time>2021-02-03T12:44:18Z</time>
      </trkpt>
      <trkpt lat="43.64194" lon="3.78099">
        <ele>123</ele>
        <time>2021-02-03T12:44:28Z</time>
      </trkpt>
      <trkpt lat="43.64183" lon="3.78153">
        <ele>123</ele>
        <time>2021-02-03T12:44:38Z</time>
      </trkpt>
      <trkpt lat="43.64178" lon="3.78222">
        <ele>120</ele>
        <time>2021-02-03T12:44:49Z</time>
      </trkpt>
      <trkpt lat="43.64169" lon="3.78285">
        <ele>118</ele>
        <time>2021-02-03T12:45:00Z</time>
      </trkpt>
      <trkpt lat="43.64143" lon="3.78354">
        <ele>115</ele>
        <time>2021-02-03T12:45:13Z</time>
      </trkpt>
      <trkpt lat="43.64136" lon="3.78392">
        <ele>113</ele>
        <time>2021-02-03T12:45:20Z</time>
      </trkpt>
      <trkpt lat="43.64137" lon="3.78418">
        <ele>113</ele>
        <time>2021-02-03T12:45:24Z</time>
      </trkpt>
      <trkpt lat="43.64143" lon="3.78473">
        <ele>114</ele>
        <time>2021-02-03T12:45:34Z</time>
      </trkpt>
      <trkpt lat="43.64143" lon="3.78508">
        <ele>116</ele>
        <time>2021-02-03T12:45:40Z</time>
      </trkpt>
      <trkpt lat="43.64146" lon="3.78549">
        <ele>118</ele>
        <time>2021-02-03T12:45:47Z</time>
      </trkpt>
      <trkpt lat="43.6414" lon="3.78621">
        <ele>121</ele>
        <time>2021-02-03T12:45:59Z</time>
      </trkpt>
      <trkpt lat="43.64131" lon="3.78689">
        <ele>122</ele>
        <time>2021-02-03T12:46:10Z</time>
      </trkpt>
      <trkpt lat="43.64137" lon="3.78723">
        <ele>122</ele>
        <time>2021-02-03T12:46:16Z</time>
      </trkpt>
      <trkpt lat="43.64138" lon="3.78759">
        <ele>122</ele>
        <time>2021-02-03T12:46:22Z</time>
      </trkpt>
      <trkpt lat="43.64135" lon="3.78792">
        <ele>122</ele>
        <time>2021-02-03T12:46:28Z</time>
      </trkpt>
      <trkpt lat="43.64139" lon="3.78821">
        <ele>122</ele>
        <time>2021-02-03T12:46:33Z</time>
      </trkpt>
      <trkpt lat="43.64149" lon="3.7885">
        <ele>123</ele>
        <time>2021-02-03T12:46:39Z</time>
      </trkpt>
      <trkpt lat="43.64164" lon="3.78881">
        <ele>123</ele>
        <time>2021-02-03T12:46:45Z</time>
      </trkpt>
      <trkpt lat="43.64181" lon="3.78905">
        <ele>124</ele>
        <time>2021-02-03T12:46:50Z</time>
      </trkpt>
      <trkpt lat="43.64207" lon="3.78929">
        <ele>125</ele>
        <time>2021-02-03T12:46:58Z</time>
      </trkpt>
      <trkpt lat="43.64222" lon="3.78949">
        <ele>125</ele>
        <time>2021-02-03T12:47:03Z</time>
      </trkpt>
      <trkpt lat="43.64235" lon="3.78973">
        <ele>125</ele>
        <time>2021-02-03T12:47:08Z</time>
      </trkpt>
      <trkpt lat="43.64253" lon="3.79011">
        <ele>125</ele>
        <time>2021-02-03T12:47:15Z</time>
      </trkpt>
      <trkpt lat="43.64261" lon="3.7902">
        <ele>124</ele>
        <time>2021-02-03T12:47:18Z</time>
      </trkpt>
      <trkpt lat="43.64265" lon="3.7903">
        <ele>124</ele>
        <time>2021-02-03T12:47:20Z</time>
      </trkpt>
      <trkpt lat="43.64268" lon="3.79045">
        <ele>124</ele>
        <time>2021-02-03T12:47:22Z</time>
      </trkpt>
      <trkpt lat="43.64279" lon="3.79074">
        <ele>123</ele>
        <time>2021-02-03T12:47:28Z</time>
      </trkpt>
      <trkpt lat="43.64282" lon="3.7909">
        <ele>123</ele>
        <time>2021-02-03T12:47:31Z</time>
      </trkpt>
      <trkpt lat="43.64285" lon="3.79122">
        <ele>122</ele>
        <time>2021-02-03T12:47:36Z</time>
      </trkpt>
      <trkpt lat="43.64282" lon="3.79197">
        <ele>120</ele>
        <time>2021-02-03T12:47:49Z</time>
      </trkpt>
      <trkpt lat="43.64286" lon="3.79208">
        <ele>120</ele>
        <time>2021-02-03T12:47:51Z</time>
      </trkpt>
      <trkpt lat="43.64286" lon="3.79222">
        <ele>119</ele>
        <time>2021-02-03T12:47:53Z</time>
      </trkpt>
      <trkpt lat="43.6429" lon="3.79246">
        <ele>118</ele>
        <time>2021-02-03T12:47:57Z</time>
      </trkpt>
      <trkpt lat="43.64288" lon="3.79256">
        <ele>117</ele>
        <time>2021-02-03T12:47:59Z</time>
      </trkpt>
      <trkpt lat="43.64287" lon="3.79285">
        <ele>113</ele>
        <time>2021-02-03T12:48:04Z</time>
      </trkpt>
      <trkpt lat="43.64294" lon="3.79294">
        <ele>112</ele>
        <time>2021-02-03T12:48:06Z</time>
      </trkpt>
      <trkpt lat="43.64301" lon="3.79296">
        <ele>111</ele>
        <time>2021-02-03T12:48:08Z</time>
      </trkpt>
      <trkpt lat="43.64303" lon="3.79304">
        <ele>110</ele>
        <time>2021-02-03T12:48:09Z</time>
      </trkpt>
      <trkpt lat="43.64298" lon="3.79338">
        <ele>105</ele>
        <time>2021-02-03T12:48:15Z</time>
      </trkpt>
      <trkpt lat="43.64296" lon="3.79359">
        <ele>101</ele>
        <time>2021-02-03T12:48:19Z</time>
      </trkpt>
      <trkpt lat="43.64297" lon="3.79376">
        <ele>98</ele>
        <time>2021-02-03T12:48:22Z</time>
      </trkpt>
      <trkpt lat="43.64294" lon="3.7939">
        <ele>96</ele>
        <time>2021-02-03T12:48:24Z</time>
      </trkpt>
      <trkpt lat="43.64295" lon="3.79407">
        <ele>92</ele>
        <time>2021-02-03T12:48:27Z</time>
      </trkpt>
      <trkpt lat="43.64292" lon="3.79448">
        <ele>86</ele>
        <time>2021-02-03T12:48:34Z</time>
      </trkpt>
      <trkpt lat="43.64294" lon="3.79463">
        <ele>83</ele>
        <time>2021-02-03T12:48:37Z</time>
      </trkpt>
      <trkpt lat="43.6429" lon="3.79476">
        <ele>82</ele>
        <time>2021-02-03T12:48:39Z</time>
      </trkpt>
      <trkpt lat="43.64291" lon="3.7949">
        <ele>79</ele>
        <time>2021-02-03T12:48:41Z</time>
      </trkpt>
      <trkpt lat="43.64287" lon="3.79499">
        <ele>78</ele>
        <time>2021-02-03T12:48:43Z</time>
      </trkpt>
      <trkpt lat="43.64285" lon="3.79525">
        <ele>74</ele>
        <time>2021-02-03T12:48:48Z</time>
      </trkpt>
      <trkpt lat="43.6429" lon="3.79529">
        <ele>73</ele>
        <time>2021-02-03T12:48:49Z</time>
      </trkpt>
      <trkpt lat="43.64298" lon="3.79529">
        <ele>73</ele>
        <time>2021-02-03T12:48:51Z</time>
      </trkpt>
      <trkpt lat="43.643" lon="3.79533">
        <ele>72</ele>
        <time>2021-02-03T12:48:52Z</time>
      </trkpt>
      <trkpt lat="43.64299" lon="3.79542">
        <ele>71</ele>
        <time>2021-02-03T12:48:53Z</time>
      </trkpt>
      <trkpt lat="43.64292" lon="3.79554">
        <ele>70</ele>
        <time>2021-02-03T12:48:56Z</time>
      </trkpt>
      <trkpt lat="43.64277" lon="3.79589">
        <ele>66</ele>
        <time>2021-02-03T12:49:03Z</time>
      </trkpt>
      <trkpt lat="43.6427" lon="3.796">
        <ele>66</ele>
        <time>2021-02-03T12:49:05Z</time>
      </trkpt>
      <trkpt lat="43.64251" lon="3.79598">
        <ele>68</ele>
        <time>2021-02-03T12:49:10Z</time>
      </trkpt>
      <trkpt lat="43.64238" lon="3.79617">
        <ele>68</ele>
        <time>2021-02-03T12:49:14Z</time>
      </trkpt>
      <trkpt lat="43.64236" lon="3.79625">
        <ele>68</ele>
        <time>2021-02-03T12:49:15Z</time>
      </trkpt>
      <trkpt lat="43.64228" lon="3.7963">
        <ele>69</ele>
        <time>2021-02-03T12:49:18Z</time>
      </trkpt>
      <trkpt lat="43.64221" lon="3.79637">
        <ele>70</ele>
        <time>2021-02-03T12:49:20Z</time>
      </trkpt>
      <trkpt lat="43.64213" lon="3.79655">
        <ele>70</ele>
        <time>2021-02-03T12:49:23Z</time>
      </trkpt>
      <trkpt lat="43.6421" lon="3.79677">
        <ele>69</ele>
        <time>2021-02-03T12:49:27Z</time>
      </trkpt>
      <trkpt lat="43.64212" lon="3.79692">
        <ele>67</ele>
        <time>2021-02-03T12:49:29Z</time>
      </trkpt>
      <trkpt lat="43.64204" lon="3.79716">
        <ele>66</ele>
        <time>2021-02-03T12:49:34Z</time>
      </trkpt>
      <trkpt lat="43.64195" lon="3.79753">
        <ele>64</ele>
        <time>2021-02-03T12:49:41Z</time>
      </trkpt>
      <trkpt lat="43.64186" lon="3.79758">
        <ele>65</ele>
        <time>2021-02-03T12:49:43Z</time>
      </trkpt>
      <trkpt lat="43.6418" lon="3.79755">
        <ele>65</ele>
        <time>2021-02-03T12:49:44Z</time>
      </trkpt>
      <trkpt lat="43.64167" lon="3.79755">
        <ele>67</ele>
        <time>2021-02-03T12:49:47Z</time>
      </trkpt>
      <trkpt lat="43.64159" lon="3.79767">
        <ele>67</ele>
        <time>2021-02-03T12:49:50Z</time>
      </trkpt>
      <trkpt lat="43.64151" lon="3.79776">
        <ele>68</ele>
        <time>2021-02-03T12:49:52Z</time>
      </trkpt>
      <trkpt lat="43.64144" lon="3.79779">
        <ele>69</ele>
        <time>2021-02-03T12:49:54Z</time>
      </trkpt>
      <trkpt lat="43.64142" lon="3.79788">
        <ele>69</ele>
        <time>2021-02-03T12:49:56Z</time>
      </trkpt>
      <trkpt lat="43.64138" lon="3.79794">
        <ele>69</ele>
        <time>2021-02-03T12:49:57Z</time>
      </trkpt>
      <trkpt lat="43.64133" lon="3.79795">
        <ele>70</ele>
        <time>2021-02-03T12:49:58Z</time>
      </trkpt>
      <trkpt lat="43.64121" lon="3.79786">
        <ele>73</ele>
        <time>2021-02-03T12:50:02Z</time>
      </trkpt>
      <trkpt lat="43.641" lon="3.79795">
        <ele>77</ele>
        <time>2021-02-03T12:50:07Z</time>
      </trkpt>
      <trkpt lat="43.64069" lon="3.79819">
        <ele>81</ele>
        <time>2021-02-03T12:50:15Z</time>
      </trkpt>
      <trkpt lat="43.64065" lon="3.79817">
        <ele>82</ele>
        <time>2021-02-03T12:50:16Z</time>
      </trkpt>
      <trkpt lat="43.64053" lon="3.79804">
        <ele>85</ele>
        <time>2021-02-03T12:50:20Z</time>
      </trkpt>
      <trkpt lat="43.64032" lon="3.79801">
        <ele>90</ele>
        <time>2021-02-03T12:50:24Z</time>
      </trkpt>
      <trkpt lat="43.64028" lon="3.79803">
        <ele>91</ele>
        <time>2021-02-03T12:50:25Z</time>
      </trkpt>
      <trkpt lat="43.64019" lon="3.79812">
        <ele>92</ele>
        <time>2021-02-03T12:50:28Z</time>
      </trkpt>
      <trkpt lat="43.64016" lon="3.79812">
        <ele>92</ele>
        <time>2021-02-03T12:50:29Z</time>
      </trkpt>
      <trkpt lat="43.64013" lon="3.7981">
        <ele>93</ele>
        <time>2021-02-03T12:50:30Z</time>
      </trkpt>
      <trkpt lat="43.64009" lon="3.79805">
        <ele>94</ele>
        <time>2021-02-03T12:50:31Z</time>
      </trkpt>
      <trkpt lat="43.64008" lon="3.79778">
        <ele>96</ele>
        <time>2021-02-03T12:50:35Z</time>
      </trkpt>
      <trkpt lat="43.64004" lon="3.79766">
        <ele>98</ele>
        <time>2021-02-03T12:50:38Z</time>
      </trkpt>
      <trkpt lat="43.63998" lon="3.79758">
        <ele>100</ele>
        <time>2021-02-03T12:50:40Z</time>
      </trkpt>
      <trkpt lat="43.63984" lon="3.79749">
        <ele>102</ele>
        <time>2021-02-03T12:50:43Z</time>
      </trkpt>
      <trkpt lat="43.63964" lon="3.79733">
        <ele>104</ele>
        <time>2021-02-03T12:50:49Z</time>
      </trkpt>
      <trkpt lat="43.63937" lon="3.79708">
        <ele>109</ele>
        <time>2021-02-03T12:50:56Z</time>
      </trkpt>
      <trkpt lat="43.63927" lon="3.79695">
        <ele>111</ele>
        <time>2021-02-03T12:50:59Z</time>
      </trkpt>
      <trkpt lat="43.63914" lon="3.79687">
        <ele>114</ele>
        <time>2021-02-03T12:51:03Z</time>
      </trkpt>
      <trkpt lat="43.63891" lon="3.79679">
        <ele>115</ele>
        <time>2021-02-03T12:51:08Z</time>
      </trkpt>
      <trkpt lat="43.63884" lon="3.79672">
        <ele>117</ele>
        <time>2021-02-03T12:51:10Z</time>
      </trkpt>
      <trkpt lat="43.63878" lon="3.79656">
        <ele>118</ele>
        <time>2021-02-03T12:51:13Z</time>
      </trkpt>
      <trkpt lat="43.63861" lon="3.79663">
        <ele>118</ele>
        <time>2021-02-03T12:51:17Z</time>
      </trkpt>
      <trkpt lat="43.63856" lon="3.79669">
        <ele>118</ele>
        <time>2021-02-03T12:51:19Z</time>
      </trkpt>
      <trkpt lat="43.63841" lon="3.79668">
        <ele>119</ele>
        <time>2021-02-03T12:51:22Z</time>
      </trkpt>
      <trkpt lat="43.63834" lon="3.79675">
        <ele>118</ele>
        <time>2021-02-03T12:51:24Z</time>
      </trkpt>
      <trkpt lat="43.63823" lon="3.79682">
        <ele>117</ele>
        <time>2021-02-03T12:51:27Z</time>
      </trkpt>
      <trkpt lat="43.63802" lon="3.79701">
        <ele>115</ele>
        <time>2021-02-03T12:51:33Z</time>
      </trkpt>
      <trkpt lat="43.63797" lon="3.79711">
        <ele>114</ele>
        <time>2021-02-03T12:51:35Z</time>
      </trkpt>
      <trkpt lat="43.63785" lon="3.79716">
        <ele>114</ele>
        <time>2021-02-03T12:51:38Z</time>
      </trkpt>
      <trkpt lat="43.63768" lon="3.79727">
        <ele>115</ele>
        <time>2021-02-03T12:51:43Z</time>
      </trkpt>
      <trkpt lat="43.63741" lon="3.79751">
        <ele>116</ele>
        <time>2021-02-03T12:51:50Z</time>
      </trkpt>
      <trkpt lat="43.63732" lon="3.79761">
        <ele>115</ele>
        <time>2021-02-03T12:51:53Z</time>
      </trkpt>
      <trkpt lat="43.63722" lon="3.79778">
        <ele>115</ele>
        <time>2021-02-03T12:51:56Z</time>
      </trkpt>
      <trkpt lat="43.63703" lon="3.7982">
        <ele>114</ele>
        <time>2021-02-03T12:52:05Z</time>
      </trkpt>
      <trkpt lat="43.63681" lon="3.79849">
        <ele>113</ele>
        <time>2021-02-03T12:52:12Z</time>
      </trkpt>
      <trkpt lat="43.63673" lon="3.79868">
        <ele>112</ele>
        <time>2021-02-03T12:52:16Z</time>
      </trkpt>
      <trkpt lat="43.63629" lon="3.79939">
        <ele>108</ele>
        <time>2021-02-03T12:52:31Z</time>
      </trkpt>
      <trkpt lat="43.63617" lon="3.79953">
        <ele>108</ele>
        <time>2021-02-03T12:52:35Z</time>
      </trkpt>
      <trkpt lat="43.63594" lon="3.79988">
        <ele>108</ele>
        <time>2021-02-03T12:52:43Z</time>
      </trkpt>
      <trkpt lat="43.63567" lon="3.80059">
        <ele>108</ele>
        <time>2021-02-03T12:52:57Z</time>
      </trkpt>
      <trkpt lat="43.63559" lon="3.80073">
        <ele>108</ele>
        <time>2021-02-03T12:53:00Z</time>
      </trkpt>
      <trkpt lat="43.63548" lon="3.80086">
        <ele>109</ele>
        <time>2021-02-03T12:53:03Z</time>
      </trkpt>
      <trkpt lat="43.63543" lon="3.80123">
        <ele>110</ele>
        <time>2021-02-03T12:53:09Z</time>
      </trkpt>
      <trkpt lat="43.63577" lon="3.80184">
        <ele>112</ele>
        <time>2021-02-03T12:53:22Z</time>
      </trkpt>
      <trkpt lat="43.63595" lon="3.80212">
        <ele>111</ele>
        <time>2021-02-03T12:53:29Z</time>
      </trkpt>
      <trkpt lat="43.636" lon="3.80233">
        <ele>111</ele>
        <time>2021-02-03T12:53:32Z</time>
      </trkpt>
      <trkpt lat="43.63596" lon="3.80311">
        <ele>113</ele>
        <time>2021-02-03T12:53:46Z</time>
      </trkpt>
      <trkpt lat="43.63593" lon="3.80329">
        <ele>114</ele>
        <time>2021-02-03T12:53:49Z</time>
      </trkpt>
      <trkpt lat="43.63644" lon="3.80399">
        <ele>106</ele>
        <time>2021-02-03T12:54:06Z</time>
      </trkpt>
      <trkpt lat="43.63661" lon="3.80426">
        <ele>103</ele>
        <time>2021-02-03T12:54:12Z</time>
      </trkpt>
      <trkpt lat="43.63677" lon="3.80456">
        <ele>96</ele>
        <time>2021-02-03T12:54:18Z</time>
      </trkpt>
      <trkpt lat="43.6369" lon="3.80484">
        <ele>91</ele>
        <time>2021-02-03T12:54:24Z</time>
      </trkpt>
      <trkpt lat="43.63702" lon="3.80517">
        <ele>85</ele>
        <time>2021-02-03T12:54:30Z</time>
      </trkpt>
      <trkpt lat="43.63749" lon="3.80623">
        <ele>68</ele>
        <time>2021-02-03T12:54:51Z</time>
      </trkpt>
      <trkpt lat="43.63781" lon="3.80681">
        <ele>60</ele>
        <time>2021-02-03T12:55:03Z</time>
      </trkpt>
      <trkpt lat="43.63789" lon="3.80719">
        <ele>57</ele>
        <time>2021-02-03T12:55:10Z</time>
      </trkpt>
      <trkpt lat="43.63794" lon="3.80733">
        <ele>56</ele>
        <time>2021-02-03T12:55:12Z</time>
      </trkpt>
      <trkpt lat="43.6382" lon="3.80725">
        <ele>56</ele>
        <time>2021-02-03T12:55:19Z</time>
      </trkpt>
      <trkpt lat="43.63839" lon="3.80723">
        <ele>56</ele>
        <time>2021-02-03T12:55:23Z</time>
      </trkpt>
      <trkpt lat="43.63853" lon="3.80729">
        <ele>56</ele>
        <time>2021-02-03T12:55:27Z</time>
      </trkpt>
      <trkpt lat="43.63862" lon="3.80735">
        <ele>56</ele>
        <time>2021-02-03T12:55:29Z</time>
      </trkpt>
      <trkpt lat="43.63862" lon="3.80744">
        <ele>56</ele>
        <time>2021-02-03T12:55:30Z</time>
      </trkpt>
      <trkpt lat="43.63859" lon="3.80755">
        <ele>57</ele>
        <time>2021-02-03T12:55:32Z</time>
      </trkpt>
      <trkpt lat="43.63862" lon="3.80744">
        <ele>56</ele>
        <time>2021-02-03T12:55:34Z</time>
      </trkpt>
      <trkpt lat="43.63862" lon="3.80735">
        <ele>56</ele>
        <time>2021-02-03T12:55:36Z</time>
      </trkpt>
      <trkpt lat="43.63864" lon="3.80728">
        <ele>57</ele>
        <time>2021-02-03T12:55:37Z</time>
      </trkpt>
      <trkpt lat="43.63871" lon="3.80723">
        <ele>57</ele>
        <time>2021-02-03T12:55:39Z</time>
      </trkpt>
      <trkpt lat="43.63873" lon="3.80719">
        <ele>57</ele>
        <time>2021-02-03T12:55:40Z</time>
      </trkpt>
      <trkpt lat="43.63882" lon="3.80717">
        <ele>57</ele>
        <time>2021-02-03T12:55:42Z</time>
      </trkpt>
      <trkpt lat="43.63884" lon="3.80722">
        <ele>57</ele>
        <time>2021-02-03T12:55:43Z</time>
      </trkpt>
      <trkpt lat="43.63888" lon="3.80722">
        <ele>57</ele>
        <time>2021-02-03T12:55:44Z</time>
      </trkpt>
      <trkpt lat="43.6389" lon="3.8072">
        <ele>57</ele>
        <time>2021-02-03T12:55:44Z</time>
      </trkpt>
      <trkpt lat="43.63904" lon="3.80701">
        <ele>57</ele>
        <time>2021-02-03T12:55:49Z</time>
      </trkpt>
      <trkpt lat="43.63919" lon="3.80696">
        <ele>57</ele>
        <time>2021-02-03T12:55:53Z</time>
      </trkpt>
      <trkpt lat="43.63946" lon="3.80713">
        <ele>61</ele>
        <time>2021-02-03T12:56:00Z</time>
      </trkpt>
      <trkpt lat="43.63959" lon="3.80717">
        <ele>62</ele>
        <time>2021-02-03T12:56:03Z</time>
      </trkpt>
      <trkpt lat="43.63985" lon="3.80737">
        <ele>66</ele>
        <time>2021-02-03T12:56:10Z</time>
      </trkpt>
      <trkpt lat="43.63997" lon="3.8074">
        <ele>68</ele>
        <time>2021-02-03T12:56:12Z</time>
      </trkpt>
      <trkpt lat="43.6402" lon="3.80774">
        <ele>77</ele>
        <time>2021-02-03T12:56:20Z</time>
      </trkpt>
      <trkpt lat="43.64028" lon="3.80775">
        <ele>77</ele>
        <time>2021-02-03T12:56:22Z</time>
      </trkpt>
      <trkpt lat="43.64038" lon="3.80766">
        <ele>76</ele>
        <time>2021-02-03T12:56:25Z</time>
      </trkpt>
      <trkpt lat="43.64048" lon="3.80774">
        <ele>78</ele>
        <time>2021-02-03T12:56:28Z</time>
      </trkpt>
      <trkpt lat="43.64063" lon="3.80807">
        <ele>83</ele>
        <time>2021-02-03T12:56:34Z</time>
      </trkpt>
      <trkpt lat="43.64066" lon="3.80847">
        <ele>87</ele>
        <time>2021-02-03T12:56:41Z</time>
      </trkpt>
      <trkpt lat="43.64058" lon="3.80857">
        <ele>89</ele>
        <time>2021-02-03T12:56:44Z</time>
      </trkpt>
      <trkpt lat="43.6405" lon="3.8087">
        <ele>91</ele>
        <time>2021-02-03T12:56:46Z</time>
      </trkpt>
      <trkpt lat="43.64043" lon="3.80892">
        <ele>94</ele>
        <time>2021-02-03T12:56:51Z</time>
      </trkpt>
      <trkpt lat="43.64044" lon="3.80906">
        <ele>96</ele>
        <time>2021-02-03T12:56:53Z</time>
      </trkpt>
      <trkpt lat="43.64054" lon="3.80923">
        <ele>97</ele>
        <time>2021-02-03T12:56:57Z</time>
      </trkpt>
      <trkpt lat="43.64059" lon="3.80928">
        <ele>97</ele>
        <time>2021-02-03T12:56:58Z</time>
      </trkpt>
      <trkpt lat="43.64066" lon="3.8093">
        <ele>97</ele>
        <time>2021-02-03T12:57:00Z</time>
      </trkpt>
      <trkpt lat="43.64079" lon="3.80923">
        <ele>95</ele>
        <time>2021-02-03T12:57:03Z</time>
      </trkpt>
      <trkpt lat="43.64096" lon="3.80928">
        <ele>96</ele>
        <time>2021-02-03T12:57:07Z</time>
      </trkpt>
      <trkpt lat="43.64101" lon="3.80925">
        <ele>96</ele>
        <time>2021-02-03T12:57:08Z</time>
      </trkpt>
      <trkpt lat="43.64107" lon="3.80939">
        <ele>98</ele>
        <time>2021-02-03T12:57:11Z</time>
      </trkpt>
      <trkpt lat="43.6412" lon="3.80944">
        <ele>99</ele>
        <time>2021-02-03T12:57:14Z</time>
      </trkpt>
      <trkpt lat="43.64135" lon="3.80982">
        <ele>103</ele>
        <time>2021-02-03T12:57:22Z</time>
      </trkpt>
      <trkpt lat="43.64114" lon="3.81016">
        <ele>106</ele>
        <time>2021-02-03T12:57:29Z</time>
      </trkpt>
      <trkpt lat="43.64103" lon="3.81048">
        <ele>108</ele>
        <time>2021-02-03T12:57:35Z</time>
      </trkpt>
      <trkpt lat="43.64085" lon="3.81082">
        <ele>113</ele>
        <time>2021-02-03T12:57:42Z</time>
      </trkpt>
      <trkpt lat="43.64081" lon="3.81098">
        <ele>114</ele>
        <time>2021-02-03T12:57:45Z</time>
      </trkpt>
      <trkpt lat="43.6409" lon="3.81102">
        <ele>113</ele>
        <time>2021-02-03T12:57:47Z</time>
      </trkpt>
      <trkpt lat="43.64121" lon="3.81142">
        <ele>112</ele>
        <time>2021-02-03T12:57:57Z</time>
      </trkpt>
      <trkpt lat="43.64177" lon="3.81206">
        <ele>111</ele>
        <time>2021-02-03T12:58:14Z</time>
      </trkpt>
      <trkpt lat="43.64207" lon="3.81256">
        <ele>112</ele>
        <time>2021-02-03T12:58:25Z</time>
      </trkpt>
      <trkpt lat="43.64231" lon="3.81301">
        <ele>111</ele>
        <time>2021-02-03T12:58:35Z</time>
      </trkpt>
      <trkpt lat="43.64253" lon="3.81332">
        <ele>110</ele>
        <time>2021-02-03T12:58:42Z</time>
      </trkpt>
      <trkpt lat="43.64268" lon="3.81364">
        <ele>109</ele>
        <time>2021-02-03T12:58:48Z</time>
      </trkpt>
      <trkpt lat="43.64286" lon="3.81412">
        <ele>110</ele>
        <time>2021-02-03T12:58:57Z</time>
      </trkpt>
      <trkpt lat="43.64298" lon="3.81453">
        <ele>112</ele>
        <time>2021-02-03T12:59:05Z</time>
      </trkpt>
      <trkpt lat="43.64331" lon="3.81582">
        <ele>117</ele>
        <time>2021-02-03T12:59:28Z</time>
      </trkpt>
      <trkpt lat="43.64344" lon="3.81623">
        <ele>116</ele>
        <time>2021-02-03T12:59:36Z</time>
      </trkpt>
      <trkpt lat="43.64365" lon="3.81679">
        <ele>114</ele>
        <time>2021-02-03T12:59:46Z</time>
      </trkpt>
      <trkpt lat="43.64376" lon="3.81713">
        <ele>115</ele>
        <time>2021-02-03T12:59:53Z</time>
      </trkpt>
      <trkpt lat="43.64384" lon="3.81687">
        <ele>112</ele>
        <time>2021-02-03T12:59:57Z</time>
      </trkpt>
      <trkpt lat="43.64384" lon="3.8168">
        <ele>111</ele>
        <time>2021-02-03T12:59:59Z</time>
      </trkpt>
      <trkpt lat="43.64391" lon="3.81671">
        <ele>110</ele>
        <time>2021-02-03T13:00:01Z</time>
      </trkpt>
      <trkpt lat="43.64401" lon="3.81663">
        <ele>107</ele>
        <time>2021-02-03T13:00:03Z</time>
      </trkpt>
      <trkpt lat="43.64404" lon="3.81656">
        <ele>106</ele>
        <time>2021-02-03T13:00:05Z</time>
      </trkpt>
      <trkpt lat="43.64404" lon="3.81647">
        <ele>105</ele>
        <time>2021-02-03T13:00:06Z</time>
      </trkpt>
      <trkpt lat="43.64412" lon="3.81628">
        <ele>101</ele>
        <time>2021-02-03T13:00:10Z</time>
      </trkpt>
      <trkpt lat="43.64432" lon="3.8159">
        <ele>94</ele>
        <time>2021-02-03T13:00:18Z</time>
      </trkpt>
      <trkpt lat="43.64436" lon="3.81585">
        <ele>92</ele>
        <time>2021-02-03T13:00:19Z</time>
      </trkpt>
      <trkpt lat="43.64443" lon="3.8157">
        <ele>91</ele>
        <time>2021-02-03T13:00:22Z</time>
      </trkpt>
      <trkpt lat="43.64452" lon="3.81543">
        <ele>90</ele>
        <time>2021-02-03T13:00:27Z</time>
      </trkpt>
      <trkpt lat="43.64454" lon="3.81551">
        <ele>89</ele>
        <time>2021-02-03T13:00:29Z</time>
      </trkpt>
      <trkpt lat="43.64452" lon="3.81543">
        <ele>90</ele>
        <time>2021-02-03T13:00:30Z</time>
      </trkpt>
      <trkpt lat="43.64497" lon="3.81463">
        <ele>82</ele>
        <time>2021-02-03T13:00:47Z</time>
      </trkpt>
      <trkpt lat="43.64513" lon="3.81418">
        <ele>80</ele>
        <time>2021-02-03T13:00:56Z</time>
      </trkpt>
      <trkpt lat="43.64518" lon="3.81376">
        <ele>77</ele>
        <time>2021-02-03T13:01:03Z</time>
      </trkpt>
      <trkpt lat="43.6453" lon="3.81315">
        <ele>72</ele>
        <time>2021-02-03T13:01:14Z</time>
      </trkpt>
      <trkpt lat="43.64548" lon="3.81274">
        <ele>68</ele>
        <time>2021-02-03T13:01:22Z</time>
      </trkpt>
      <trkpt lat="43.64579" lon="3.81181">
        <ele>64</ele>
        <time>2021-02-03T13:01:39Z</time>
      </trkpt>
      <trkpt lat="43.64577" lon="3.81172">
        <ele>64</ele>
        <time>2021-02-03T13:01:41Z</time>
      </trkpt>
      <trkpt lat="43.64587" lon="3.81147">
        <ele>64</ele>
        <time>2021-02-03T13:01:45Z</time>
      </trkpt>
      <trkpt lat="43.64588" lon="3.81134">
        <ele>64</ele>
        <time>2021-02-03T13:01:48Z</time>
      </trkpt>
      <trkpt lat="43.64592" lon="3.81089">
        <ele>64</ele>
        <time>2021-02-03T13:01:55Z</time>
      </trkpt>
      <trkpt lat="43.64594" lon="3.81061">
        <ele>64</ele>
        <time>2021-02-03T13:02:00Z</time>
      </trkpt>
      <trkpt lat="43.64583" lon="3.81031">
        <ele>65</ele>
        <time>2021-02-03T13:02:06Z</time>
      </trkpt>
      <trkpt lat="43.64584" lon="3.81027">
        <ele>65</ele>
        <time>2021-02-03T13:02:07Z</time>
      </trkpt>
      <trkpt lat="43.64586" lon="3.81023">
        <ele>65</ele>
        <time>2021-02-03T13:02:07Z</time>
      </trkpt>
      <trkpt lat="43.64594" lon="3.8101">
        <ele>65</ele>
        <time>2021-02-03T13:02:10Z</time>
      </trkpt>
      <trkpt lat="43.64595" lon="3.81005">
        <ele>65</ele>
        <time>2021-02-03T13:02:11Z</time>
      </trkpt>
      <trkpt lat="43.646" lon="3.80986">
        <ele>64</ele>
        <time>2021-02-03T13:02:15Z</time>
      </trkpt>
      <trkpt lat="43.64609" lon="3.80948">
        <ele>64</ele>
        <time>2021-02-03T13:02:21Z</time>
      </trkpt>
      <trkpt lat="43.64614" lon="3.80931">
        <ele>63</ele>
        <time>2021-02-03T13:02:24Z</time>
      </trkpt>
      <trkpt lat="43.64617" lon="3.80918">
        <ele>63</ele>
        <time>2021-02-03T13:02:27Z</time>
      </trkpt>
      <trkpt lat="43.64638" lon="3.80826">
        <ele>64</ele>
        <time>2021-02-03T13:02:43Z</time>
      </trkpt>
      <trkpt lat="43.64649" lon="3.80791">
        <ele>64</ele>
        <time>2021-02-03T13:02:49Z</time>
      </trkpt>
      <trkpt lat="43.64654" lon="3.80783">
        <ele>65</ele>
        <time>2021-02-03T13:02:51Z</time>
      </trkpt>
      <trkpt lat="43.64665" lon="3.80747">
        <ele>65</ele>
        <time>2021-02-03T13:02:58Z</time>
      </trkpt>
      <trkpt lat="43.64669" lon="3.80713">
        <ele>65</ele>
        <time>2021-02-03T13:03:04Z</time>
      </trkpt>
      <trkpt lat="43.64675" lon="3.80688">
        <ele>66</ele>
        <time>2021-02-03T13:03:08Z</time>
      </trkpt>
      <trkpt lat="43.64679" lon="3.80618">
        <ele>64</ele>
        <time>2021-02-03T13:03:20Z</time>
      </trkpt>
      <trkpt lat="43.64679" lon="3.80616">
        <ele>64</ele>
        <time>2021-02-03T13:03:20Z</time>
      </trkpt>
      <trkpt lat="43.64676" lon="3.80616">
        <ele>64</ele>
        <time>2021-02-03T13:03:21Z</time>
      </trkpt>
      <trkpt lat="43.64676" lon="3.80596">
        <ele>64</ele>
        <time>2021-02-03T13:03:24Z</time>
      </trkpt>
      <trkpt lat="43.64671" lon="3.80541">
        <ele>62</ele>
        <time>2021-02-03T13:03:34Z</time>
      </trkpt>
      <trkpt lat="43.64673" lon="3.80533">
        <ele>62</ele>
        <time>2021-02-03T13:03:35Z</time>
      </trkpt>
      <trkpt lat="43.64658" lon="3.80423">
        <ele>62</ele>
        <time>2021-02-03T13:03:54Z</time>
      </trkpt>
      <trkpt lat="43.64674" lon="3.80246">
        <ele>61</ele>
        <time>2021-02-03T13:04:24Z</time>
      </trkpt>
      <trkpt lat="43.6468" lon="3.8024">
        <ele>62</ele>
        <time>2021-02-03T13:04:26Z</time>
      </trkpt>
      <trkpt lat="43.6469" lon="3.80177">
        <ele>63</ele>
        <time>2021-02-03T13:04:37Z</time>
      </trkpt>
      <trkpt lat="43.64704" lon="3.80132">
        <ele>65</ele>
        <time>2021-02-03T13:04:45Z</time>
      </trkpt>
      <trkpt lat="43.64718" lon="3.80095">
        <ele>66</ele>
        <time>2021-02-03T13:04:52Z</time>
      </trkpt>
      <trkpt lat="43.64715" lon="3.80082">
        <ele>66</ele>
        <time>2021-02-03T13:04:54Z</time>
      </trkpt>
      <trkpt lat="43.64717" lon="3.8007">
        <ele>66</ele>
        <time>2021-02-03T13:04:57Z</time>
      </trkpt>
      <trkpt lat="43.64727" lon="3.80046">
        <ele>67</ele>
        <time>2021-02-03T13:05:01Z</time>
      </trkpt>
      <trkpt lat="43.64725" lon="3.80022">
        <ele>67</ele>
        <time>2021-02-03T13:05:05Z</time>
      </trkpt>
      <trkpt lat="43.64739" lon="3.80012">
        <ele>67</ele>
        <time>2021-02-03T13:05:09Z</time>
      </trkpt>
      <trkpt lat="43.64744" lon="3.80007">
        <ele>67</ele>
        <time>2021-02-03T13:05:10Z</time>
      </trkpt>
      <trkpt lat="43.64704" lon="3.79941">
        <ele>65</ele>
        <time>2021-02-03T13:05:25Z</time>
      </trkpt>
      <trkpt lat="43.647" lon="3.79922">
        <ele>65</ele>
        <time>2021-02-03T13:05:28Z</time>
      </trkpt>
      <trkpt lat="43.647" lon="3.79914">
        <ele>64</ele>
        <time>2021-02-03T13:05:30Z</time>
      </trkpt>
      <trkpt lat="43.64699" lon="3.79855">
        <ele>63</ele>
        <time>2021-02-03T13:05:40Z</time>
      </trkpt>
      <trkpt lat="43.64697" lon="3.79838">
        <ele>63</ele>
        <time>2021-02-03T13:05:43Z</time>
      </trkpt>
      <trkpt lat="43.64698" lon="3.79807">
        <ele>63</ele>
        <time>2021-02-03T13:05:48Z</time>
      </trkpt>
      <trkpt lat="43.64701" lon="3.79769">
        <ele>62</ele>
        <time>2021-02-03T13:05:54Z</time>
      </trkpt>
      <trkpt lat="43.647" lon="3.79748">
        <ele>62</ele>
        <time>2021-02-03T13:05:58Z</time>
      </trkpt>
      <trkpt lat="43.64707" lon="3.79717">
        <ele>62</ele>
        <time>2021-02-03T13:06:03Z</time>
      </trkpt>
      <trkpt lat="43.64694" lon="3.79713">
        <ele>62</ele>
        <time>2021-02-03T13:06:06Z</time>
      </trkpt>
      <trkpt lat="43.64677" lon="3.79674">
        <ele>60</ele>
        <time>2021-02-03T13:06:14Z</time>
      </trkpt>
      <trkpt lat="43.64669" lon="3.79662">
        <ele>59</ele>
        <time>2021-02-03T13:06:17Z</time>
      </trkpt>
      <trkpt lat="43.64665" lon="3.79655">
        <ele>59</ele>
        <time>2021-02-03T13:06:18Z</time>
      </trkpt>
      <trkpt lat="43.64659" lon="3.79644">
        <ele>58</ele>
        <time>2021-02-03T13:06:21Z</time>
      </trkpt>
      <trkpt lat="43.64648" lon="3.79633">
        <ele>58</ele>
        <time>2021-02-03T13:06:24Z</time>
      </trkpt>
      <trkpt lat="43.64637" lon="3.79619">
        <ele>57</ele>
        <time>2021-02-03T13:06:27Z</time>
      </trkpt>
      <trkpt lat="43.6463" lon="3.79613">
        <ele>57</ele>
        <time>2021-02-03T13:06:29Z</time>
      </trkpt>
      <trkpt lat="43.64616" lon="3.79601">
        <ele>56</ele>
        <time>2021-02-03T13:06:33Z</time>
      </trkpt>
      <trkpt lat="43.64589" lon="3.79582">
        <ele>55</ele>
        <time>2021-02-03T13:06:40Z</time>
      </trkpt>
      <trkpt lat="43.64574" lon="3.79575">
        <ele>55</ele>
        <time>2021-02-03T13:06:44Z</time>
      </trkpt>
      <trkpt lat="43.64564" lon="3.79566">
        <ele>56</ele>
        <time>2021-02-03T13:06:47Z</time>
      </trkpt>
      <trkpt lat="43.64573" lon="3.79534">
        <ele>55</ele>
        <time>2021-02-03T13:06:53Z</time>
      </trkpt>
      <trkpt lat="43.64594" lon="3.79485">
        <ele>57</ele>
        <time>2021-02-03T13:07:02Z</time>
      </trkpt>
      <trkpt lat="43.64602" lon="3.79472">
        <ele>58</ele>
        <time>2021-02-03T13:07:05Z</time>
      </trkpt>
      <trkpt lat="43.64599" lon="3.79468">
        <ele>58</ele>
        <time>2021-02-03T13:07:06Z</time>
      </trkpt>
      <trkpt lat="43.64589" lon="3.79454">
        <ele>60</ele>
        <time>2021-02-03T13:07:09Z</time>
      </trkpt>
      <trkpt lat="43.64591" lon="3.79446">
        <ele>61</ele>
        <time>2021-02-03T13:07:11Z</time>
      </trkpt>
      <trkpt lat="43.64617" lon="3.7941">
        <ele>63</ele>
        <time>2021-02-03T13:07:19Z</time>
      </trkpt>
      <trkpt lat="43.64637" lon="3.79388">
        <ele>63</ele>
        <time>2021-02-03T13:07:25Z</time>
      </trkpt>
      <trkpt lat="43.64639" lon="3.79372">
        <ele>64</ele>
        <time>2021-02-03T13:07:28Z</time>
      </trkpt>
      <trkpt lat="43.64652" lon="3.79336">
        <ele>65</ele>
        <time>2021-02-03T13:07:35Z</time>
      </trkpt>
      <trkpt lat="43.64657" lon="3.79311">
        <ele>67</ele>
        <time>2021-02-03T13:07:39Z</time>
      </trkpt>
      <trkpt lat="43.64666" lon="3.79296">
        <ele>66</ele>
        <time>2021-02-03T13:07:43Z</time>
      </trkpt>
      <trkpt lat="43.64679" lon="3.79287">
        <ele>66</ele>
        <time>2021-02-03T13:07:46Z</time>
      </trkpt>
      <trkpt lat="43.64683" lon="3.79282">
        <ele>66</ele>
        <time>2021-02-03T13:07:47Z</time>
      </trkpt>
      <trkpt lat="43.64689" lon="3.79275">
        <ele>66</ele>
        <time>2021-02-03T13:07:49Z</time>
      </trkpt>
      <trkpt lat="43.64707" lon="3.79251">
        <ele>66</ele>
        <time>2021-02-03T13:07:55Z</time>
      </trkpt>
      <trkpt lat="43.64728" lon="3.79222">
        <ele>68</ele>
        <time>2021-02-03T13:08:02Z</time>
      </trkpt>
      <trkpt lat="43.64754" lon="3.79181">
        <ele>70</ele>
        <time>2021-02-03T13:08:11Z</time>
      </trkpt>
      <trkpt lat="43.64768" lon="3.79168">
        <ele>70</ele>
        <time>2021-02-03T13:08:15Z</time>
      </trkpt>
      <trkpt lat="43.64789" lon="3.79155">
        <ele>68</ele>
        <time>2021-02-03T13:08:20Z</time>
      </trkpt>
      <trkpt lat="43.64854" lon="3.79078">
        <ele>64</ele>
        <time>2021-02-03T13:08:40Z</time>
      </trkpt>
      <trkpt lat="43.64882" lon="3.79049">
        <ele>66</ele>
        <time>2021-02-03T13:08:48Z</time>
      </trkpt>
      <trkpt lat="43.64907" lon="3.79037">
        <ele>64</ele>
        <time>2021-02-03T13:08:55Z</time>
      </trkpt>
      <trkpt lat="43.6492" lon="3.79027">
        <ele>64</ele>
        <time>2021-02-03T13:08:58Z</time>
      </trkpt>
      <trkpt lat="43.64957" lon="3.78993">
        <ele>65</ele>
        <time>2021-02-03T13:09:09Z</time>
      </trkpt>
      <trkpt lat="43.64991" lon="3.78988">
        <ele>64</ele>
        <time>2021-02-03T13:09:17Z</time>
      </trkpt>
      <trkpt lat="43.64995" lon="3.78985">
        <ele>64</ele>
        <time>2021-02-03T13:09:18Z</time>
      </trkpt>
      <trkpt lat="43.64998" lon="3.78979">
        <ele>64</ele>
        <time>2021-02-03T13:09:19Z</time>
      </trkpt>
      <trkpt lat="43.65003" lon="3.78978">
        <ele>64</ele>
        <time>2021-02-03T13:09:20Z</time>
      </trkpt>
      <trkpt lat="43.65004" lon="3.7898">
        <ele>64</ele>
        <time>2021-02-03T13:09:20Z</time>
      </trkpt>
      <trkpt lat="43.65007" lon="3.78981">
        <ele>64</ele>
        <time>2021-02-03T13:09:21Z</time>
      </trkpt>
      <trkpt lat="43.65052" lon="3.7894">
        <ele>65</ele>
        <time>2021-02-03T13:09:34Z</time>
      </trkpt>
    </trkseg>
  </trk>
</gpx>